sensor_id;sensor_type;location;lat;lon;timestamp;temperature;humidity
39695;DHT22;25367;-35.352;149.036;2023-07-31T21:26:52;15.90;61.20
39695;DHT22;25367;-35.352;149.036;2023-07-31T21:29:21;16.00;62.50
39695;DHT22;25367;-35.352;149.036;2023-07-31T21:31:51;16.10;62.30
39695;DHT22;25367;-35.352;149.036;2023-07-31T21:34:20;16.30;62.00
39695;DHT22;25367;-35.352;149.036;2023-07-31T21:36:50;16.50;61.70
39695;DHT22;25367;-35.352;149.036;2023-07-31T21:39:19;16.60;61.30
39695;DHT22;25367;-35.352;149.036;2023-07-31T21:41:52;16.70;61.20
39695;DHT22;25367;-35.352;149.036;2023-07-31T21:44:21;16.80;61.10
39695;DHT22;25367;-35.352;149.036;2023-07-31T21:46:51;16.90;60.80
39695;DHT22;25367;-35.352;149.036;2023-07-31T21:49:20;17.00;60.60
39695;DHT22;25367;-35.352;149.036;2023-07-31T21:51:50;17.00;60.30
39695;DHT22;25367;-35.352;149.036;2023-07-31T21:54:19;17.10;60.10
39695;DHT22;25367;-35.352;149.036;2023-07-31T21:56:52;17.10;60.00
39695;DHT22;25367;-35.352;149.036;2023-07-31T21:59:21;17.10;59.90
39695;DHT22;25367;-35.352;149.036;2023-07-31T22:01:51;17.20;59.90
39695;DHT22;25367;-35.352;149.036;2023-07-31T22:04:20;17.20;59.70
39695;DHT22;25367;-35.352;149.036;2023-07-31T22:06:50;17.20;59.70
39695;DHT22;25367;-35.352;149.036;2023-07-31T22:09:19;17.30;59.60
39695;DHT22;25367;-35.352;149.036;2023-07-31T22:11:52;17.30;59.50
39695;DHT22;25367;-35.352;149.036;2023-07-31T22:14:22;17.40;59.50
39695;DHT22;25367;-35.352;149.036;2023-07-31T22:16:51;17.40;59.40
39695;DHT22;25367;-35.352;149.036;2023-07-31T22:19:21;17.40;59.40
39695;DHT22;25367;-35.352;149.036;2023-07-31T22:21:51;17.50;59.40
39695;DHT22;25367;-35.352;149.036;2023-07-31T22:24:20;17.50;59.30
39695;DHT22;25367;-35.352;149.036;2023-07-31T22:26:53;17.50;59.30
39695;DHT22;25367;-35.352;149.036;2023-07-31T22:29:23;17.50;59.20
39695;DHT22;25367;-35.352;149.036;2023-07-31T22:31:52;17.50;59.20
39695;DHT22;25367;-35.352;149.036;2023-07-31T22:34:21;17.60;59.70
39695;DHT22;25367;-35.352;149.036;2023-07-31T22:36:51;17.60;59.50
39695;DHT22;25367;-35.352;149.036;2023-07-31T22:39:20;17.60;59.30
39695;DHT22;25367;-35.352;149.036;2023-07-31T22:41:53;17.60;59.20
39695;DHT22;25367;-35.352;149.036;2023-07-31T22:44:22;17.70;59.20
39695;DHT22;25367;-35.352;149.036;2023-07-31T22:46:52;17.70;59.10
39695;DHT22;25367;-35.352;149.036;2023-07-31T22:49:22;17.70;59.10
39695;DHT22;25367;-35.352;149.036;2023-07-31T22:51:51;17.70;59.00
39695;DHT22;25367;-35.352;149.036;2023-07-31T22:54:20;17.80;59.00
39695;DHT22;25367;-35.352;149.036;2023-07-31T22:56:53;17.80;59.00
39695;DHT22;25367;-35.352;149.036;2023-07-31T22:59:23;17.80;59.00
39695;DHT22;25367;-35.352;149.036;2023-07-31T23:01:52;17.80;58.90
39695;DHT22;25367;-35.352;149.036;2023-07-31T23:04:22;17.90;58.90
39695;DHT22;25367;-35.352;149.036;2023-07-31T23:06:51;17.90;58.90
39695;DHT22;25367;-35.352;149.036;2023-07-31T23:09:21;17.90;58.80
39695;DHT22;25367;-35.352;149.036;2023-07-31T23:11:53;17.90;58.80
39695;DHT22;25367;-35.352;149.036;2023-07-31T23:14:23;18.00;58.80
39695;DHT22;25367;-35.352;149.036;2023-07-31T23:16:53;18.00;58.80
39695;DHT22;25367;-35.352;149.036;2023-07-31T23:19:23;18.00;58.80
39695;DHT22;25367;-35.352;149.036;2023-07-31T23:21:52;18.00;58.70
39695;DHT22;25367;-35.352;149.036;2023-07-31T23:24:22;18.00;58.70
39695;DHT22;25367;-35.352;149.036;2023-07-31T23:26:54;18.10;58.70
39695;DHT22;25367;-35.352;149.036;2023-07-31T23:29:25;18.10;58.60
39695;DHT22;25367;-35.352;149.036;2023-07-31T23:31:54;18.10;58.60
39695;DHT22;25367;-35.352;149.036;2023-07-31T23:34:23;18.10;58.60
39695;DHT22;25367;-35.352;149.036;2023-07-31T23:36:53;18.10;58.50
39695;DHT22;25367;-35.352;149.036;2023-07-31T23:39:22;18.20;59.10
39695;DHT22;25367;-35.352;149.036;2023-07-31T23:41:55;18.20;58.50
39695;DHT22;25367;-35.352;149.036;2023-07-31T23:44:25;18.20;58.50
39695;DHT22;25367;-35.352;149.036;2023-07-31T23:46:54;18.20;58.50
39695;DHT22;25367;-35.352;149.036;2023-07-31T23:49:24;18.20;58.40
39695;DHT22;25367;-35.352;149.036;2023-07-31T23:51:55;18.30;58.40
39695;DHT22;25367;-35.352;149.036;2023-07-31T23:54:25;18.30;58.40
39695;DHT22;25367;-35.352;149.036;2023-07-31T23:56:58;18.30;58.40
39695;DHT22;25367;-35.352;149.036;2023-07-31T23:59:27;18.30;58.30
